Attica, Michigan
Current Conditions -  °F | °C
As of 1:54 AM on Saturday 01 Nov 2014 (Local Time) from KD95 Reporting Station
Overcast Overcast  
Wind Chill: 23°   Ceiling: 1600
Heat Index: 33°   Visibility: 10mi
Dew Point: 29°   Wind: 14mph
Humidity: 87%   Direction: 20°NNE
Pressure: 30.18"   Gusts: 23mph
Location:  43.03°N, 83.17°W
Report Text: KD95 010554Z AUTO 02012G20KT 10SM OVC016 01/M01 A3018 RMK AO2 T00051014
Loading
Personal Weather Stations






























Interactive Weather Map
Tropical Storm Tracking
New forecast layout! Learn more

10-Day Weather Forecast

Advertisements
Track Severe Weather on mobile